Time;durP1;ratioP1;P1;durP2;ratioP2;P2;SDS_P1;SDS_P2;PMS_P1;PMS_P2;Temp;Humidity;BMP_temperature;BMP_pressure;BME280_temperature;BME280_humidity;BME280_pressure;Samples;Min_cycle;Max_cycle;Signal;HPM_P1;HPM_P2
2023/10/11 00:01:09;;;;;;;39.10;10.85;;;;;;;-145.82;100.00;64029.03;5036151;28;20091;-75
2023/10/11 00:03:34;;;;;;;39.80;12.52;;;;;;;-145.82;100.00;64029.03;5036182;28;20057;-76
2023/10/11 00:06:04;;;;;;;35.33;11.32;;;;;;;-145.82;100.00;64029.03;5035374;28;20035;-76
2023/10/11 00:08:39;;;;;;;39.38;12.10;;;;;;;-145.82;100.00;64029.03;5036269;28;20060;-75
2023/10/11 00:11:07;;;;;;;38.85;11.23;;;;;;;15.97;nan;101481.56;5036144;28;20101;-76
2023/10/11 00:13:33;;;;;;;46.20;12.30;;;;;;;15.93;nan;101481.06;5018250;28;20030;-77
2023/10/11 00:16:07;;;;;;;37.17;11.45;;;;;;;15.92;nan;101484.75;5036086;28;20091;-75
2023/10/11 00:18:34;;;;;;;36.50;11.88;;;;;;;15.95;nan;101483.59;5036025;28;20033;-75
2023/10/11 00:21:02;;;;;;;41.17;12.10;;;;;;;15.92;nan;101489.28;5035778;28;20033;-75
2023/10/11 00:23:31;;;;;;;39.80;11.27;;;;;;;15.86;nan;101488.06;5035615;28;20036;-75
2023/10/11 00:26:01;;;;;;;38.72;11.25;;;;;;;15.84;nan;101482.03;5018097;28;20485;-74
2023/10/11 00:28:31;;;;;;;43.08;11.35;;;;;;;15.85;nan;101478.31;5018327;28;20030;-75
2023/10/11 00:31:00;;;;;;;36.50;11.82;;;;;;;15.86;nan;101472.78;5035738;28;20108;-75
2023/10/11 00:33:26;;;;;;;30.55;10.75;;;;;;;15.84;nan;101473.97;5035195;28;20033;-75
2023/10/11 00:35:52;;;;;;;37.28;11.00;;;;;;;15.90;nan;101464.44;5035439;28;20041;-75
2023/10/11 00:38:20;;;;;;;41.38;11.35;;;;;;;15.92;nan;101474.00;5035170;28;20033;-75
2023/10/11 00:41:01;;;;;;;38.55;11.95;;;;;;;15.85;nan;101464.91;5035335;28;20091;-75
2023/10/11 00:43:52;;;;;;;32.33;12.38;;;;;;;15.83;nan;101473.13;5035718;28;20510;-75
2023/10/11 00:46:19;;;;;;;48.67;13.07;;;;;;;15.83;nan;101472.28;5030880;28;20050;-75
2023/10/11 00:48:52;;;;;;;39.13;13.38;;;;;;;15.81;nan;101463.56;5035326;28;20044;-75
2023/10/11 00:51:19;;;;;;;45.35;12.35;;;;;;;15.83;nan;101461.56;5019036;28;20025;-75
2023/10/11 00:53:45;;;;;;;46.13;13.20;;;;;;;15.77;nan;101457.63;5035102;28;20079;-75
2023/10/11 00:56:10;;;;;;;46.88;12.52;;;;;;;15.75;nan;101454.25;5035451;28;20474;-75
2023/10/11 00:58:39;;;;;;;40.67;13.15;;;;;;;15.70;nan;101453.88;5035094;28;20037;-74
2023/10/11 01:01:04;;;;;;;33.85;11.32;;;;;;;15.68;nan;101448.66;5035011;28;20041;-75
2023/10/11 01:03:31;;;;;;;44.08;13.57;;;;;;;15.67;nan;101449.69;5028693;28;20064;-74
2023/10/11 01:05:59;;;;;;;39.70;12.48;;;;;;;15.63;nan;101448.31;5054770;28;20049;-75
2023/10/11 01:08:24;;;;;;;32.95;12.57;;;;;;;15.64;nan;101446.47;5055559;28;20171;-74
2023/10/11 01:10:50;;;;;;;51.08;12.85;;;;;;;15.63;nan;101455.50;5054775;28;20116;-75
2023/10/11 01:13:17;;;;;;;35.88;13.23;;;;;;;15.60;nan;101462.03;5054700;28;20134;-75
2023/10/11 01:15:44;;;;;;;40.95;12.73;;;;;;;15.60;nan;101445.94;5055057;28;20072;-75
2023/10/11 01:18:12;;;;;;;46.33;14.68;;;;;;;15.60;nan;101451.31;5053692;28;20118;-75
2023/10/11 01:20:39;;;;;;;45.83;13.63;;;;;;;15.56;nan;101438.38;5054859;28;20480;-75
2023/10/11 01:23:04;;;;;;;39.70;12.70;;;;;;;15.53;nan;101444.88;5054058;28;20044;-75
2023/10/11 01:25:30;;;;;;;48.08;13.60;;;;;;;15.50;nan;101434.47;5054316;28;20029;-74
2023/10/11 01:27:55;;;;;;;40.10;12.43;;;;;;;15.50;nan;101434.47;5053604;28;20032;-75
2023/10/11 01:30:21;;;;;;;39.08;13.10;;;;;;;15.47;nan;101441.00;5054398;28;20056;-74
2023/10/11 01:32:48;;;;;;;47.97;13.30;;;;;;;15.45;nan;101426.91;5054227;28;20466;-75
2023/10/11 01:35:19;;;;;;;37.20;12.40;;;;;;;-145.82;100.00;64029.03;5053885;28;20049;-74
2023/10/11 01:37:48;;;;;;;44.58;12.05;;;;;;;15.44;nan;101425.22;5054818;28;20039;-76
2023/10/11 01:40:20;;;;;;;40.67;12.20;;;;;;;15.44;nan;101422.53;5054273;28;20028;-75
2023/10/11 01:42:50;;;;;;;32.05;11.18;;;;;;;15.42;nan;101421.88;5054030;28;20021;-75
2023/10/11 01:45:19;;;;;;;42.90;11.73;;;;;;;15.36;nan;101419.81;5054212;28;20393;-74
2023/10/11 01:47:46;;;;;;;33.47;11.05;;;;;;;15.33;nan;101414.72;5054000;28;20051;-77
2023/10/11 01:50:14;;;;;;;32.78;11.57;;;;;;;15.30;nan;101405.19;5054135;28;20059;-75
2023/10/11 01:52:40;;;;;;;37.13;11.32;;;;;;;15.27;nan;101408.19;5053613;28;20041;-75
2023/10/11 01:55:05;;;;;;;30.35;11.30;;;;;;;15.21;nan;101394.53;5053856;28;20087;-75
2023/10/11 01:57:31;;;;;;;35.08;11.15;;;;;;;15.19;nan;101399.22;5054385;28;20036;-75
2023/10/11 01:59:58;;;;;;;35.17;11.60;;;;;;;15.20;nan;101387.50;5053575;28;20033;-74
2023/10/11 02:02:27;;;;;;;30.75;11.10;;;;;;;15.27;nan;101391.25;5053779;28;20071;-75
2023/10/11 02:04:57;;;;;;;32.38;11.10;;;;;;;15.27;nan;101393.91;5039185;28;20057;-75
2023/10/11 02:07:22;;;;;;;34.15;11.48;;;;;;;15.23;nan;101411.34;5033788;28;20073;-75
2023/10/11 02:09:48;;;;;;;35.72;11.27;;;;;;;15.30;nan;101412.38;5033726;28;20057;-77
2023/10/11 02:12:17;;;;;;;39.50;12.40;;;;;;;15.34;nan;101398.50;5033655;28;20040;-75
2023/10/11 02:14:44;;;;;;;38.58;12.00;;;;;;;15.29;nan;101398.13;5033849;28;20025;-75
2023/10/11 02:17:13;;;;;;;28.27;11.10;;;;;;;15.31;nan;101393.44;5033569;28;20466;-74
2023/10/11 02:19:38;;;;;;;39.58;11.63;;;;;;;15.29;nan;101394.63;5033293;28;20033;-75
2023/10/11 02:22:04;;;;;;;43.00;11.68;;;;;;;15.28;nan;101400.97;5033253;28;20083;-75
2023/10/11 02:24:29;;;;;;;37.42;10.90;;;;;;;15.23;nan;101392.56;5033652;28;20171;-75
2023/10/11 02:26:55;;;;;;;42.38;12.18;;;;;;;15.21;nan;101397.22;5016007;28;20458;-75
2023/10/11 02:29:21;;;;;;;35.00;11.70;;;;;;;15.19;nan;101391.19;5033187;28;20191;-75
2023/10/11 02:31:52;;;;;;;36.47;11.80;;;;;;;15.18;nan;101379.59;5033461;28;20033;-75
2023/10/11 02:34:17;;;;;;;33.35;12.32;;;;;;;15.18;nan;101382.28;5016305;28;20049;-75
2023/10/11 02:36:45;;;;;;;46.92;12.55;;;;;;;15.17;nan;101372.59;5016267;28;20450;-75
2023/10/11 02:39:19;;;;;;;41.17;12.65;;;;;;;15.15;nan;101385.28;5033497;28;20033;-75
2023/10/11 02:41:57;;;;;;;34.13;11.45;;;;;;;15.13;nan;101381.94;5033899;28;20037;-74
2023/10/11 02:44:22;;;;;;;40.95;11.20;;;;;;;15.08;nan;101384.25;5033385;28;20033;-74
2023/10/11 02:46:49;;;;;;;37.53;12.73;;;;;;;15.07;nan;101393.28;5033670;28;20450;-75
2023/10/11 02:49:21;;;;;;;31.48;10.90;;;;;;;15.11;nan;101389.28;5033942;28;20116;-74
2023/10/11 02:51:55;;;;;;;34.55;11.90;;;;;;;15.06;nan;101394.25;5033555;28;20084;-74
2023/10/11 02:54:21;;;;;;;39.88;12.32;;;;;;;15.03;nan;101394.56;5033509;28;20060;-76
2023/10/11 02:56:47;;;;;;;29.83;12.20;;;;;;;15.02;nan;101388.38;5033963;28;20492;-76
2023/10/11 02:59:19;;;;;;;32.65;12.50;;;;;;;15.02;nan;101391.06;5034653;28;20124;-75
2023/10/11 03:01:59;;;;;;;31.42;11.25;;;;;;;15.04;nan;101386.38;5033739;28;20458;-75
2023/10/11 03:04:28;;;;;;;40.08;12.63;;;;;;;15.05;nan;101388.06;5033139;28;20060;-75
2023/10/11 03:06:53;;;;;;;34.40;12.98;;;;;;;15.08;nan;101392.28;5015780;28;20033;-75
2023/10/11 03:09:19;;;;;;;34.90;12.23;;;;;;;15.15;nan;101386.16;5015394;28;20044;-74
2023/10/11 03:11:45;;;;;;;31.00;12.27;;;;;;;15.16;nan;101371.72;5033125;28;20103;-75
2023/10/11 03:14:12;;;;;;;34.08;11.70;;;;;;;15.19;nan;101361.72;5033589;28;20037;-74
2023/10/11 03:16:42;;;;;;;32.00;11.95;;;;;;;15.22;nan;101356.03;5033269;28;20044;-75
2023/10/11 03:19:10;;;;;;;39.78;13.10;;;;;;;15.19;nan;101356.34;5032808;28;20065;-75
2023/10/11 03:21:35;;;;;;;37.05;12.27;;;;;;;15.14;nan;101359.50;5032852;28;20049;-74
2023/10/11 03:24:05;;;;;;;36.47;14.85;;;;;;;15.06;nan;101372.81;5015043;28;20121;-75
2023/10/11 03:29:03;;;;;;;35.42;12.40;;;;;;;15.09;nan;101370.69;5032809;28;20390;-75
2023/10/11 03:31:33;;;;;;;33.97;11.93;;;;;;;15.07;nan;101377.19;5033531;28;20042;-75
2023/10/11 03:34:00;;;;;;;41.85;13.20;;;;;;;15.04;nan;101370.31;5033022;28;20029;-77
2023/10/11 03:36:35;;;;;;;39.83;13.93;;;;;;;15.03;nan;101359.75;5015287;28;20057;-75
2023/10/11 03:39:09;;;;;;;35.25;13.40;;;;;;;15.22;nan;101359.53;5033475;28;20030;-76
2023/10/11 03:41:44;;;;;;;41.45;14.30;;;;;;;15.26;nan;101360.09;5036752;28;20033;-75
2023/10/11 03:44:10;;;;;;;46.42;13.90;;;;;;;15.27;nan;101348.34;5036350;28;20041;-75
2023/10/11 03:46:36;;;;;;;32.53;14.20;;;;;;;15.22;nan;101358.72;5036724;28;20029;-74
2023/10/11 03:49:32;;;;;;;38.78;14.32;;;;;;;15.22;nan;101358.72;5036313;28;20029;-77
2023/10/11 03:51:48;;;;;;;39.15;13.82;;;;;;;-145.82;100.00;64029.03;5036553;28;20049;-75
2023/10/11 03:54:24;;;;;;;50.72;13.82;;;;;;;-145.82;100.00;64029.03;5018610;28;20364;-75
2023/10/11 03:56:53;;;;;;;41.58;13.23;;;;;;;-145.82;100.00;64029.03;5037085;28;20026;-75
2023/10/11 03:59:26;;;;;;;39.10;14.32;;;;;;;-145.82;100.00;64029.03;5035773;28;20477;-72
2023/10/11 04:01:53;;;;;;;43.42;14.25;;;;;;;15.40;nan;101354.13;5036096;28;20487;-74
2023/10/11 04:04:22;;;;;;;36.88;12.98;;;;;;;15.40;nan;101355.97;5037980;28;20045;-76
2023/10/11 04:06:51;;;;;;;46.22;13.02;;;;;;;15.42;nan;101365.56;5036071;28;20041;-75
2023/10/11 04:09:32;;;;;;;40.28;12.95;;;;;;;15.47;nan;101362.41;5035839;28;20108;-75
2023/10/11 04:12:03;;;;;;;42.95;12.75;;;;;;;15.49;nan;101350.50;5036732;28;20037;-75
2023/10/11 04:14:44;;;;;;;38.20;11.88;;;;;;;15.51;nan;101353.88;5035825;28;20043;-76
2023/10/11 04:19:59;;;;;;;39.20;12.90;;;;;;;15.56;nan;101345.34;5036682;28;19921;-76
2023/10/11 04:22:25;;;;;;;49.05;13.68;;;;;;;15.58;nan;101350.56;5035864;28;20462;-75
2023/10/11 04:24:54;;;;;;;40.05;12.75;;;;;;;15.66;nan;101351.44;5035618;28;20056;-75
2023/10/11 04:29:50;;;;;;;38.22;12.05;;;;;;;15.77;nan;101353.00;5036041;28;20041;-75
2023/10/11 04:33:01;;;;;;;36.30;12.73;;;;;;;15.81;nan;101346.34;5035941;28;20449;-76
2023/10/11 04:37:54;;;;;;;43.75;12.55;;;;;;;15.81;nan;101357.06;5035550;28;20091;-76
2023/10/11 04:40:38;;;;;;;44.60;14.75;;;;;;;15.76;nan;101356.66;5035560;28;20074;-75
2023/10/11 04:43:05;;;;;;;32.22;10.98;;;;;;;15.73;nan;101348.94;5035270;28;20079;-75
2023/10/11 04:45:44;;;;;;;42.53;12.45;;;;;;;15.74;nan;101355.16;5035312;28;20454;-75
2023/10/11 04:48:15;;;;;;;34.33;11.20;;;;;;;15.73;nan;101351.63;5035145;28;20026;-76
2023/10/11 04:50:50;;;;;;;42.70;12.85;;;;;;;15.75;nan;101346.94;5035045;28;20072;-76
2023/10/11 04:53:17;;;;;;;33.92;12.07;;;;;;;15.76;nan;101343.25;5035540;28;20091;-75
2023/10/11 04:55:59;;;;;;;37.63;12.30;;;;;;;15.77;nan;101341.44;5017379;28;20095;-75
2023/10/11 04:58:42;;;;;;;;;;;;;;;15.82;nan;101342.66;5036097;28;20116;-74
2023/10/11 05:01:11;;;;;;;43.35;10.93;;;;;;;15.80;nan;101352.69;5017849;28;19916;-75
2023/10/11 05:03:37;;;;;;;43.75;11.38;;;;;;;15.82;nan;101353.41;5034640;28;20033;-75
2023/10/11 05:06:12;;;;;;;34.45;11.15;;;;;;;15.82;nan;101350.72;5034680;28;20430;-74
2023/10/11 05:08:51;;;;;;;49.00;12.50;;;;;;;15.81;nan;101338.28;5035062;28;20033;-75
2023/10/11 05:12:07;;;;;;;52.88;13.25;;;;;;;15.79;nan;101344.81;5035335;28;20044;-75
2023/10/11 05:16:49;;;;;;;52.30;13.18;;;;;;;15.71;nan;101339.38;5034918;28;20107;-76
2023/10/11 05:19:20;;;;;;;43.97;12.80;;;;;;;15.71;nan;101339.38;5034674;28;20458;-76
2023/10/11 05:21:52;;;;;;;41.10;12.70;;;;;;;15.66;nan;101354.13;5035482;28;20120;-76
2023/10/11 05:27:09;;;;;;;43.53;13.05;;;;;;;15.66;nan;101347.94;5035138;28;20123;-76
2023/10/11 05:29:52;;;;;;;47.15;12.90;;;;;;;15.65;nan;101336.34;5034795;28;20033;-77
2023/10/11 05:32:23;;;;;;;37.38;12.40;;;;;;;15.63;nan;101332.13;5034500;28;20121;-76
2023/10/11 05:35:07;;;;;;;44.95;12.48;;;;;;;15.60;nan;101319.91;5034359;28;20041;-76
2023/10/11 05:51:12;;;;;;;49.67;12.45;;;;;;;15.55;nan;101335.59;5034253;28;20095;-74
2023/10/11 05:53:40;;;;;;;39.28;11.45;;;;;;;15.56;nan;101331.94;5034257;28;20025;-76
2023/10/11 05:56:08;;;;;;;35.80;11.73;;;;;;;15.59;nan;101347.72;5034097;28;20041;-76
2023/10/11 05:58:34;;;;;;;35.42;11.77;;;;;;;15.59;nan;101352.25;5033862;28;20040;-76
2023/10/11 06:01:05;;;;;;;40.85;13.32;;;;;;;15.70;nan;101351.94;5033604;28;20044;-77
2023/10/11 06:03:35;;;;;;;46.22;12.63;;;;;;;15.74;nan;101360.53;5032753;28;20021;-76
2023/10/11 06:06:10;;;;;;;40.85;11.77;;;;;;;15.79;nan;101353.69;5033871;28;20458;-76
2023/10/11 06:08:38;;;;;;;44.20;12.25;;;;;;;15.86;nan;101352.06;5033482;28;20060;-77
2023/10/11 06:11:08;;;;;;;47.45;12.13;;;;;;;15.93;nan;101354.94;5033454;28;20034;-76
2023/10/11 06:13:33;;;;;;;37.22;11.55;;;;;;;15.98;nan;101352.59;5033215;28;20478;-77
2023/10/11 06:15:59;;;;;;;37.97;10.98;;;;;;;15.97;nan;101355.44;5032990;28;20033;-76
2023/10/11 06:18:39;;;;;;;43.97;11.38;;;;;;;15.96;nan;101359.13;5033217;28;20087;-75
2023/10/11 06:21:05;;;;;;;37.35;10.82;;;;;;;15.88;nan;101359.09;5015772;28;20025;-76
2023/10/11 06:23:31;;;;;;;40.47;11.10;;;;;;;15.83;nan;101365.78;5015309;28;20152;-76
2023/10/11 06:25:59;;;;;;;36.97;10.45;;;;;;;15.83;nan;101371.16;5033173;28;20030;-75
2023/10/11 06:28:31;;;;;;;28.92;10.75;;;;;;;15.82;nan;101374.00;5032760;28;20041;-76
2023/10/11 06:31:00;;;;;;;40.15;11.88;;;;;;;15.79;nan;101363.59;5033400;28;20041;-74
2023/10/11 06:33:26;;;;;;;35.65;10.90;;;;;;;15.79;nan;101363.59;5015932;28;20037;-77
2023/10/11 06:35:53;;;;;;;38.30;11.52;;;;;;;15.77;nan;101358.34;5033421;28;20025;-75
2023/10/11 06:38:21;;;;;;;48.10;11.32;;;;;;;15.77;nan;101354.84;5032929;28;20036;-74
2023/10/11 06:40:48;;;;;;;39.42;11.55;;;;;;;15.76;nan;101359.34;5032854;28;20037;-74
2023/10/11 06:43:14;;;;;;;39.13;10.55;;;;;;;15.80;nan;101363.44;5015198;28;20030;-75
2023/10/11 06:45:41;;;;;;;38.95;11.30;;;;;;;15.81;nan;101367.81;5032680;28;20060;-77
2023/10/11 06:48:07;;;;;;;40.95;11.55;;;;;;;15.81;nan;101370.47;5032798;28;20441;-77
2023/10/11 06:50:37;;;;;;;42.00;12.43;;;;;;;15.89;nan;101374.22;5032698;28;20513;-76
2023/10/11 06:53:09;;;;;;;40.75;11.40;;;;;;;15.93;nan;101376.41;5032570;28;20083;-78
2023/10/11 06:55:36;;;;;;;35.22;12.60;;;;;;;15.95;nan;101385.13;5015888;28;20025;-77
2023/10/11 06:58:09;;;;;;;34.92;10.57;;;;;;;16.03;nan;101387.88;5032826;28;20033;-75
2023/10/11 07:00:38;;;;;;;27.23;10.15;;;;;;;16.11;nan;101392.41;5032659;28;20359;-75
2023/10/11 07:03:39;;;;;;;37.47;10.80;;;;;;;16.15;nan;101393.78;5032774;28;20045;-77
2023/10/11 07:06:10;;;;;;;41.63;12.57;;;;;;;16.19;nan;101383.53;5029511;28;20054;-75
2023/10/11 07:08:35;;;;;;;27.17;9.63;;;;;;;16.27;nan;101385.41;5032904;28;20036;-77
2023/10/11 07:11:18;;;;;;;40.05;11.20;;;;;;;16.26;nan;101387.25;5032892;28;20033;-76
2023/10/11 07:13:49;;;;;;;32.97;10.98;;;;;;;16.25;nan;101392.81;5034034;28;20040;-77
2023/10/11 07:16:19;;;;;;;44.92;11.18;;;;;;;16.27;nan;101393.47;5036187;28;20021;-76
2023/10/11 07:18:50;;;;;;;35.85;10.57;;;;;;;16.30;nan;101395.81;5036724;28;20048;-77
2023/10/11 07:21:17;;;;;;;37.95;11.00;;;;;;;16.31;nan;101403.72;5037889;28;20037;-77
2023/10/11 07:28:56;;;;;;;36.70;10.05;;;;;;;16.33;nan;101390.97;5036538;28;20124;-78
2023/10/11 07:31:31;;;;;;;30.35;10.18;;;;;;;16.35;nan;101386.28;5036675;28;20540;-77
2023/10/11 07:34:05;;;;;;;33.88;11.82;;;;;;;16.38;nan;101390.50;5036636;28;20065;-77
2023/10/11 07:36:31;;;;;;;32.78;9.98;;;;;;;16.39;nan;101386.78;5037085;28;20124;-77
2023/10/11 07:38:56;;;;;;;29.67;9.13;;;;;;;16.41;nan;101392.84;5036368;28;20079;-76
2023/10/11 07:41:29;;;;;;;30.00;9.52;;;;;;;16.44;nan;101405.94;5036745;28;20436;-75
2023/10/11 07:43:58;;;;;;;32.15;9.55;;;;;;;16.49;nan;101400.06;5035979;28;20029;-76
2023/10/11 07:46:24;;;;;;;32.28;7.88;;;;;;;16.48;nan;101418.03;5035953;28;20021;-75
2023/10/11 07:48:56;;;;;;;27.60;8.32;;;;;;;16.48;nan;101410.00;5035954;28;20112;-75
2023/10/11 07:51:25;;;;;;;25.23;7.93;;;;;;;16.45;nan;101407.63;5018792;28;20111;-75
2023/10/11 07:53:51;;;;;;;23.90;6.97;;;;;;;16.44;nan;101416.69;5036097;28;20033;-75
2023/10/11 07:56:16;;;;;;;21.65;6.93;;;;;;;16.45;nan;101413.00;5018846;28;20343;-76
2023/10/11 07:58:45;;;;;;;20.63;5.90;;;;;;;16.43;nan;101411.47;5035851;28;20052;-75
2023/10/11 08:03:57;;;;;;;18.30;6.20;;;;;;;16.39;nan;101427.91;5035974;28;20068;-75
2023/10/11 08:06:25;;;;;;;16.48;5.85;;;;;;;16.42;nan;101424.06;5035980;28;20152;-75
2023/10/11 08:09:00;;;;;;;16.65;5.43;;;;;;;16.43;nan;101420.38;5035724;28;20026;-76
2023/10/11 08:11:36;;;;;;;15.65;5.68;;;;;;;16.43;nan;101408.78;5036215;28;20026;-74
2023/10/11 08:14:06;;;;;;;14.45;4.85;;;;;;;16.46;nan;101408.47;5035941;28;20025;-76
2023/10/11 08:16:33;;;;;;;14.50;4.50;;;;;;;16.51;nan;101419.53;5035444;28;20132;-74
2023/10/11 08:18:59;;;;;;;15.50;5.40;;;;;;;16.52;nan;101429.28;5035835;28;20033;-74
2023/10/11 08:21:24;;;;;;;22.50;5.97;;;;;;;16.60;nan;101417.72;5035475;28;20044;-77
2023/10/11 08:23:50;;;;;;;27.10;9.50;;;;;;;16.62;nan;101431.84;5034982;28;20041;-74
2023/10/11 08:26:17;;;;;;;30.02;12.15;;;;;;;16.64;nan;101427.13;5035031;28;20037;-75
2023/10/11 08:28:49;;;;;;;27.48;9.38;;;;;;;16.61;nan;101412.19;5035418;28;20034;-75
2023/10/11 08:31:27;;;;;;;17.65;6.28;;;;;;;16.63;nan;101414.69;5035804;28;20128;-75
2023/10/11 08:33:53;;;;;;;20.75;7.22;;;;;;;16.67;nan;101430.31;5035446;28;20033;-75
2023/10/11 08:36:19;;;;;;;16.27;5.88;;;;;;;16.66;nan;101411.69;5035540;28;20515;-76
2023/10/11 08:38:45;;;;;;;17.63;5.75;;;;;;;16.68;nan;101407.00;5035022;28;20025;-73
2023/10/11 08:41:15;;;;;;;14.00;4.90;;;;;;;16.69;nan;101392.53;5035066;28;20033;-73
2023/10/11 08:43:41;;;;;;;19.50;4.85;;;;;;;16.71;nan;101420.09;5017835;28;20036;-74
2023/10/11 08:46:09;;;;;;;13.70;4.50;;;;;;;16.74;nan;101425.16;5035013;28;20036;-75
2023/10/11 08:48:38;;;;;;;18.27;4.55;;;;;;;16.77;nan;101415.91;5034799;28;20032;-76
2023/10/11 08:51:12;;;;;;;10.38;4.28;;;;;;;16.82;nan;101405.50;5034498;28;20033;-76
2023/10/11 08:53:45;;;;;;;14.32;4.57;;;;;;;16.83;nan;101412.56;5017923;28;20045;-75
2023/10/11 08:56:14;;;;;;;16.40;4.53;;;;;;;16.86;nan;101405.00;5035340;28;20377;-74
2023/10/11 08:58:41;;;;;;;10.48;4.25;;;;;;;16.90;nan;101401.00;5034735;28;20033;-75
2023/10/11 09:01:07;;;;;;;12.40;4.28;;;;;;;16.91;nan;101417.97;5034578;28;20109;-75
2023/10/11 09:03:39;;;;;;;14.98;4.75;;;;;;;16.94;nan;101419.50;5034343;28;20029;-73
2023/10/11 09:06:25;;;;;;;15.50;4.20;;;;;;;17.00;nan;101421.50;5035222;28;20508;-74
2023/10/11 09:08:51;;;;;;;10.20;4.10;;;;;;;17.04;nan;101420.16;5034101;28;20056;-73
2023/10/11 09:11:29;;;;;;;14.25;4.55;;;;;;;17.00;nan;101427.72;5034452;28;20116;-76
2023/10/11 09:14:13;;;;;;;14.63;4.40;;;;;;;17.01;nan;101417.81;5034490;28;20088;-77
2023/10/11 09:16:41;;;;;;;13.70;5.60;;;;;;;17.05;nan;101429.91;5034346;28;20257;-74
2023/10/11 09:19:11;;;;;;;14.43;4.72;;;;;;;17.05;nan;101448.75;5034320;28;20044;-75
2023/10/11 09:21:38;;;;;;;20.33;5.25;;;;;;;17.11;nan;101448.06;5016473;28;20359;-76
2023/10/11 09:24:22;;;;;;;19.75;4.53;;;;;;;17.14;nan;101433.44;5034399;28;20063;-75
2023/10/11 09:27:09;;;;;;;14.75;4.47;;;;;;;17.18;nan;101443.72;5034437;28;20041;-80
2023/10/11 09:29:38;;;;;;;12.02;4.85;;;;;;;17.26;nan;101442.84;5034194;28;20030;-76
2023/10/11 09:32:05;;;;;;;13.07;4.78;;;;;;;17.36;nan;101431.91;5034455;28;20040;-76
2023/10/11 09:34:30;;;;;;;16.25;4.78;;;;;;;17.47;nan;101436.97;4999788;28;20393;-74
2023/10/11 09:37:00;;;;;;;11.93;4.72;;;;;;;17.67;nan;101423.97;5033661;28;20116;-78
2023/10/11 09:39:29;;;;;;;17.77;4.95;;;;;;;17.78;nan;101431.69;5033236;28;20033;-77
2023/10/11 09:42:04;;;;;;;10.30;4.80;;;;;;;18.04;nan;101441.38;5034182;28;20040;-75
2023/10/11 09:44:37;;;;;;;16.95;4.45;;;;;;;18.19;nan;101435.28;5034318;28;20025;-78
2023/10/11 09:47:06;;;;;;;14.85;4.85;;;;;;;18.38;nan;101436.72;5034551;28;20108;-75
2023/10/11 09:49:41;;;;;;;17.83;4.90;;;;;;;18.57;nan;101440.81;5016808;28;20382;-75
2023/10/11 09:52:08;;;;;;;17.15;4.68;;;;;;;19.07;nan;101446.75;5034113;28;20125;-75
2023/10/11 09:54:37;;;;;;;14.00;5.22;;;;;;;19.34;nan;101446.16;5034047;28;20037;-74
2023/10/11 09:57:20;;;;;;;19.38;4.82;;;;;;;19.36;nan;101436.06;5033982;28;20022;-75
2023/10/11 10:00:05;;;;;;;19.20;4.90;;;;;;;19.33;nan;101431.03;5033987;28;20473;-75
2023/10/11 10:02:38;;;;;;;13.60;3.97;;;;;;;19.54;nan;101432.16;5033741;28;20029;-74
2023/10/11 10:05:05;;;;;;;17.88;5.00;;;;;;;19.44;nan;101418.13;5034074;28;20186;-75
2023/10/11 10:07:44;;;;;;;10.38;4.25;;;;;;;19.41;nan;101431.94;5033737;28;20458;-74
2023/10/11 10:10:15;;;;;;;10.85;3.60;;;;;;;19.45;nan;101433.25;5018379;28;20371;-74
2023/10/11 10:12:41;;;;;;;14.48;3.83;;;;;;;19.44;nan;101423.50;5034593;28;20041;-75
2023/10/11 10:15:20;;;;;;;11.13;3.42;;;;;;;19.44;nan;101428.91;5033603;28;20041;-75
2023/10/11 10:18:00;;;;;;;8.80;3.35;;;;;;;19.26;nan;101416.59;5033996;28;20035;-74
2023/10/11 10:20:34;;;;;;;13.23;3.77;;;;;;;19.37;nan;101416.13;5033873;28;20045;-73
2023/10/11 10:23:15;;;;;;;13.70;3.90;;;;;;;19.67;nan;101412.63;5033414;28;20060;-73
2023/10/11 10:25:48;;;;;;;11.38;3.55;;;;;;;20.01;nan;101385.09;5033590;28;20072;-73
2023/10/11 10:28:45;;;;;;;9.10;3.40;;;;;;;20.40;nan;101378.47;5033881;28;20037;-78
2023/10/11 10:31:18;;;;;;;10.63;3.45;;;;;;;20.50;nan;101402.50;5033629;28;20070;-76
2023/10/11 10:33:49;;;;;;;21.45;3.58;;;;;;;20.06;nan;101388.09;5033217;28;20079;-80
2023/10/11 10:36:18;;;;;;;10.27;3.83;;;;;;;19.79;nan;101388.75;5033384;28;20021;-74
2023/10/11 10:39:24;;;;;;;10.48;3.70;;;;;;;19.49;nan;101386.84;5032870;28;20032;-73
2023/10/11 10:42:13;;;;;;;11.30;3.50;;;;;;;19.30;nan;101390.94;5033899;28;20035;-74
2023/10/11 10:44:52;;;;;;;12.75;3.90;;;;;;;19.19;nan;101377.88;5033164;28;20021;-73
2023/10/11 10:47:21;;;;;;;14.43;4.18;;;;;;;19.03;nan;101368.91;5016249;28;20025;-74
2023/10/11 10:49:50;;;;;;;16.98;3.97;;;;;;;18.96;nan;101369.81;5032684;28;20056;-75
2023/10/11 10:52:16;;;;;;;17.38;4.03;;;;;;;18.94;nan;101369.16;5032769;28;20041;-76
2023/10/11 10:54:56;;;;;;;13.35;4.07;;;;;;;18.81;nan;101375.97;5015739;28;20037;-76
2023/10/11 10:57:25;;;;;;;12.18;3.80;;;;;;;18.77;nan;101385.44;5033869;28;20065;-78
2023/10/11 10:59:50;;;;;;;23.15;4.90;;;;;;;18.77;nan;101376.50;5032488;28;20423;-78
2023/10/11 11:02:19;;;;;;;11.73;3.83;;;;;;;18.92;nan;101377.44;5032645;28;20060;-75
2023/10/11 11:04:46;;;;;;;12.40;4.47;;;;;;;19.16;nan;101379.06;5018832;28;20060;-82
2023/10/11 11:07:26;;;;;;;16.33;4.60;;;;;;;19.49;nan;101377.91;5052461;28;20404;-76
2023/10/11 11:09:54;;;;;;;13.43;4.40;;;;;;;19.65;nan;101375.03;5052754;28;20610;-77
2023/10/11 11:12:29;;;;;;;11.70;4.30;;;;;;;19.74;nan;101370.38;5052522;28;20041;-76
2023/10/11 11:14:58;;;;;;;14.32;4.97;;;;;;;19.64;nan;101375.22;5052685;28;20484;-75
2023/10/11 11:17:26;;;;;;;13.30;4.00;;;;;;;19.69;nan;101387.13;5052558;28;20040;-74
2023/10/11 11:20:13;;;;;;;16.90;3.75;;;;;;;19.61;nan;101378.28;5052437;28;20064;-76
2023/10/11 11:22:40;;;;;;;17.65;4.72;;;;;;;19.49;nan;101373.34;5052558;28;20036;-76
2023/10/11 11:25:16;;;;;;;10.98;3.78;;;;;;;19.50;nan;101383.13;5052418;28;20033;-78
2023/10/11 11:27:43;;;;;;;13.80;3.50;;;;;;;19.66;nan;101375.84;5052478;28;20040;-78
2023/10/11 11:30:33;;;;;;;13.05;3.42;;;;;;;19.87;nan;101384.09;5051087;28;20056;-75
2023/10/11 11:32:59;;;;;;;11.93;3.97;;;;;;;20.27;nan;101378.34;5052932;28;20094;-74
2023/10/11 11:35:29;;;;;;;10.48;3.53;;;;;;;20.22;nan;101376.19;5052793;28;20033;-77
2023/10/11 11:38:02;;;;;;;11.20;3.90;;;;;;;20.05;nan;101393.69;5052905;28;20068;-74
2023/10/11 11:40:36;;;;;;;12.75;3.97;;;;;;;19.79;nan;101381.47;5053170;28;20073;-75
2023/10/11 11:43:05;;;;;;;13.23;3.75;;;;;;;19.56;nan;101373.44;5053012;28;20104;-77
2023/10/11 11:45:35;;;;;;;8.07;2.83;;;;;;;19.34;nan;101381.41;5053067;28;20033;-76
2023/10/11 11:48:05;;;;;;;14.35;3.70;;;;;;;19.33;nan;101381.59;5052293;28;20078;-78
2023/10/11 11:50:33;;;;;;;9.90;3.58;;;;;;;19.43;nan;101373.25;5052931;28;20120;-78
2023/10/11 11:53:05;;;;;;;10.77;3.53;;;;;;;19.54;nan;101375.47;5052694;28;20025;-76
2023/10/11 11:55:35;;;;;;;11.23;3.25;;;;;;;19.58;nan;101367.88;5052409;28;20467;-75
2023/10/11 11:58:02;;;;;;;13.15;3.65;;;;;;;19.62;nan;101369.19;5052556;28;20039;-75
2023/10/11 12:00:38;;;;;;;11.70;3.20;;;;;;;19.70;nan;101363.66;5052713;28;20041;-78
2023/10/11 12:03:04;;;;;;;9.85;3.40;;;;;;;19.73;nan;101387.59;5056703;28;20084;-77
2023/10/11 12:05:37;;;;;;;14.00;3.22;;;;;;;19.83;nan;101360.34;5038697;28;20073;-76
2023/10/11 12:08:03;;;;;;;13.18;4.35;;;;;;;19.93;nan;101371.72;5036424;28;20109;-78
2023/10/11 12:10:29;;;;;;;10.88;3.38;;;;;;;19.72;nan;101375.97;5036287;28;20060;-76
2023/10/11 12:13:05;;;;;;;14.18;3.90;;;;;;;19.62;nan;101371.88;5018465;28;20402;-74
2023/10/11 12:15:40;;;;;;;14.65;4.82;;;;;;;19.63;nan;101360.03;5035797;28;20037;-73
2023/10/11 12:18:05;;;;;;;10.52;4.22;;;;;;;19.50;nan;101353.44;5036235;28;20087;-73
2023/10/11 12:20:34;;;;;;;13.52;4.15;;;;;;;19.62;nan;101359.22;5035798;28;20037;-73